Goodman, MS (39079)

10:10 AM CST on December 18, 2014 (GMT -0600)
Possumneck | Change Station
CLOSE
Current Station
Personal Weather Station
Location: West, MS
Elevation: 394 ft
Nearby Weather Stations

Elev 394 ft 33.14 °N, 89.76 °W | Updated 13 minutes ago

Overcast
Overcast
42.8 °F
Feels Like 40 °F
N
4.2
Wind Variable Wind from SSE

Today
High -- | Low -- °F
--% Chance of Precip.
Yesterday
High -- | Low -- °F
Precip. -- in
6:56 AM 4:55 PM
Waning Crescent, 14% visible
Pressure 30.24 in
Visibility 10.0 miles
Clouds Overcast 4200 ft
Windchill 40 °F
Dew Point 42 °F
Humidity 98%
Rainfall 0.03 in
Snow Depth Not available.
UV 1 out of 12
Pollen 1.20 out of 12
Air Quality Not available.
Flu Activity Not available.
METAR KGWO 181553Z AUTO 13007KT 10SM OVC042 07/07 A3024 RMK AO2 RAE06 SLP239 P0000 T00720067

More Conditions Fewer Conditions

Pressure 30.24 in
Visibility 10.0 miles
Clouds Overcast 4200 ft
Windchill 40 °F
Dew Point 42 °F
Humidity 98%
Rainfall 0.03 in
Snow Depth Not available.
UV 1 out of 12
Pollen 1.20 out of 12
Air Quality Not available.
Flu Activity Not available.
METAR KGWO 181553Z AUTO 13007KT 10SM OVC042 07/07 A3024 RMK AO2 RAE06 SLP239 P0000 T00720067

More Conditions Fewer Conditions

10-Day Weather Forecast

Almanac

Astronomy

Dec. 18, 2014 Rise Set
Actual Time
Civil Twilight
Nautical Twilight
Astronomical Twilight
Moon
Length of Visible Light
Length of Day
Tomorrow will be .
, % of the Moon is Illuminated

Today's Extremes

State Highs State Lows

Community

WunderPhotos

Upload Photos

1,778,952 photos uploaded!

WunderBlogs® & News

Nearby

Air Quality

  Air Quality AQ Index Pollutant
Not available.

Snow Depth

Station Depth Elevation

Earthquake Activity

City Distance Mag. Time & Date
Minimum magnitude displayed is 2.5.

Coastal Water Temperatures

Place Temperature

Nearby Weather Stations